Terminal Aerodrome Forecast
Issued by NWS Omaha/Valley, NE

Home | Current Version | Previous Version | Text Only | Print | Product List | Glossary On
Versions: 1 2 3 4 5 6 7 8 9 10 11 12 13 14 15 16 17 18
000
FTUS43 KOAX 191459 AAB
TAFLNK
TAF AMD
KLNK 191459Z 1915/2012 35015G24KT P6SM OVC009
      TEMPO 1915/1918 3SM BR
     FM191900 36012KT P6SM OVC015
     FM192300 01008KT P6SM OVC020 PROB30 2003/2006 4SM -FZDZ OVC003
     FM200600 01009KT 4SM -FZDZ BR OVC008
     FM201100 35012KT P6SM -FZDZPL OVC015=

USA.gov is the U.S. government's official web portal to all federal, state and local government web resources and services.